createdAt,value
2018-10-09T00:00:45.191Z,10.20
2018-10-09T00:03:20.549Z,10.20
2018-10-09T00:05:55.949Z,10.20
2018-10-09T00:08:31.542Z,10.20
2018-10-09T00:11:07.275Z,10.10
2018-10-09T00:13:42.824Z,10.10
2018-10-09T00:16:18.468Z,10.10
2018-10-09T00:18:54.281Z,10.10
2018-10-09T00:21:29.700Z,10.10
2018-10-09T00:24:05.191Z,10.00
2018-10-09T00:26:40.487Z,10.00
2018-10-09T00:29:16.094Z,10.00
2018-10-09T00:31:51.517Z,9.90
2018-10-09T00:34:27.176Z,9.90
2018-10-09T00:37:02.553Z,9.80
2018-10-09T00:39:37.979Z,9.80
2018-10-09T00:42:13.504Z,9.80
2018-10-09T00:44:49.013Z,9.70
2018-10-09T00:47:24.364Z,9.70
2018-10-09T00:49:59.961Z,9.70
2018-10-09T00:52:35.432Z,9.70
2018-10-09T00:55:10.997Z,9.60
2018-10-09T00:57:46.361Z,9.70
2018-10-09T01:00:21.873Z,9.70
2018-10-09T01:02:57.224Z,9.80
2018-10-09T01:05:32.760Z,9.80
2018-10-09T01:08:08.307Z,9.80
2018-10-09T01:10:43.696Z,9.80
2018-10-09T01:13:19.201Z,9.90
2018-10-09T01:15:55.185Z,9.90
2018-10-09T01:18:30.666Z,9.90
2018-10-09T01:21:06.341Z,10.00
2018-10-09T01:23:41.720Z,10.00
2018-10-09T01:26:17.093Z,10.00
2018-10-09T01:28:52.381Z,10.00
2018-10-09T01:31:27.868Z,10.00
2018-10-09T01:34:03.281Z,10.00
2018-10-09T01:36:38.897Z,10.00
2018-10-09T01:39:14.482Z,10.00
2018-10-09T01:41:50.162Z,10.00
2018-10-09T01:44:25.617Z,10.00
2018-10-09T01:47:01.129Z,10.00
2018-10-09T01:49:36.560Z,10.00
2018-10-09T01:52:12.095Z,9.90
2018-10-09T01:54:47.847Z,9.90
2018-10-09T01:57:23.558Z,9.90
2018-10-09T01:59:58.962Z,9.90
2018-10-09T02:02:34.429Z,9.90
2018-10-09T02:05:10.021Z,9.90
2018-10-09T02:07:45.504Z,9.80
2018-10-09T02:10:21.044Z,9.80
2018-10-09T02:12:56.512Z,9.70
2018-10-09T02:15:31.889Z,9.70
2018-10-09T02:18:07.373Z,9.70
2018-10-09T02:20:42.985Z,9.60
2018-10-09T02:23:18.610Z,9.60
2018-10-09T02:25:53.938Z,9.60
2018-10-09T02:28:29.326Z,9.50
2018-10-09T02:31:04.576Z,9.50
2018-10-09T02:33:40.468Z,9.40
2018-10-09T02:36:15.752Z,9.40
2018-10-09T02:38:51.318Z,9.40
2018-10-09T02:41:26.717Z,9.50
2018-10-09T02:44:02.194Z,9.50
2018-10-09T02:46:37.527Z,9.50
2018-10-09T02:49:13.059Z,9.50
2018-10-09T02:51:48.718Z,9.50
2018-10-09T02:54:24.326Z,9.40
2018-10-09T02:56:59.793Z,9.40
2018-10-09T02:59:35.237Z,9.40
2018-10-09T03:02:10.683Z,9.40
2018-10-09T03:04:46.140Z,9.40
2018-10-09T03:07:21.561Z,9.40
2018-10-09T03:09:57.315Z,9.30
2018-10-09T03:12:32.660Z,9.30
2018-10-09T03:15:08.262Z,9.20
2018-10-09T03:17:43.626Z,9.20
2018-10-09T03:20:19.285Z,9.10
2018-10-09T03:22:54.658Z,9.10
2018-10-09T03:25:29.961Z,9.20
2018-10-09T03:28:05.346Z,9.10
2018-10-09T03:30:40.889Z,9.10
2018-10-09T03:33:16.292Z,9.10
2018-10-09T03:35:51.708Z,9.10
2018-10-09T03:38:27.125Z,9.20
2018-10-09T03:41:02.645Z,9.20
2018-10-09T03:43:37.874Z,9.20
2018-10-09T03:46:13.561Z,9.20
2018-10-09T03:48:49.068Z,9.20
2018-10-09T03:51:24.590Z,9.20
2018-10-09T03:54:00.172Z,9.20
2018-10-09T03:56:35.800Z,9.20
2018-10-09T03:59:11.182Z,9.20
2018-10-09T04:01:46.762Z,9.20
2018-10-09T04:04:22.335Z,9.20
2018-10-09T04:06:58.029Z,9.20
2018-10-09T04:09:33.546Z,9.20
2018-10-09T04:12:09.261Z,9.20
2018-10-09T04:14:44.471Z,9.20
2018-10-09T04:17:20.163Z,9.30
2018-10-09T04:19:55.689Z,9.30
2018-10-09T04:22:31.150Z,9.20
2018-10-09T04:25:06.702Z,9.30
2018-10-09T04:27:42.187Z,9.30
2018-10-09T04:30:17.597Z,9.20
2018-10-09T04:32:53.048Z,9.20
2018-10-09T04:35:28.488Z,9.10
2018-10-09T04:38:04.062Z,9.10
2018-10-09T04:40:39.277Z,9.10
2018-10-09T04:43:14.630Z,9.00
2018-10-09T04:45:50.030Z,9.10
2018-10-09T04:48:25.443Z,9.00
2018-10-09T04:51:01.181Z,9.00
2018-10-09T04:53:36.866Z,9.10
2018-10-09T04:56:12.104Z,9.10
2018-10-09T04:58:47.669Z,9.10
2018-10-09T05:01:23.052Z,9.20
2018-10-09T05:03:58.692Z,9.20
2018-10-09T05:06:34.157Z,9.20
2018-10-09T05:09:11.392Z,9.20
2018-10-09T05:11:46.910Z,9.20
2018-10-09T05:14:22.346Z,9.20
2018-10-09T05:16:57.737Z,9.30
2018-10-09T05:19:33.308Z,9.30
2018-10-09T05:22:08.926Z,9.30
2018-10-09T05:24:44.489Z,9.40
2018-10-09T05:27:19.992Z,9.40
2018-10-09T05:29:55.413Z,9.30
2018-10-09T05:32:30.900Z,9.30
2018-10-09T05:35:06.583Z,9.20
2018-10-09T05:37:42.498Z,9.20
2018-10-09T05:40:17.861Z,9.20
2018-10-09T05:42:53.461Z,9.10
2018-10-09T05:45:29.073Z,9.10
2018-10-09T05:48:04.569Z,9.10
2018-10-09T05:50:40.091Z,9.10
2018-10-09T05:53:15.549Z,9.10
2018-10-09T05:55:51.175Z,9.10
2018-10-09T05:58:26.572Z,9.20
2018-10-09T06:01:02.136Z,9.30
2018-10-09T06:03:37.494Z,9.30
2018-10-09T06:06:13.141Z,9.40
2018-10-09T06:08:48.911Z,9.40
2018-10-09T06:11:25.070Z,9.40
2018-10-09T06:14:00.378Z,9.40
2018-10-09T06:16:35.826Z,9.40
2018-10-09T06:19:11.227Z,9.40
2018-10-09T06:21:46.927Z,9.40
2018-10-09T06:24:22.267Z,9.40
2018-10-09T06:26:57.721Z,9.40
2018-10-09T06:29:33.071Z,9.40
2018-10-09T06:32:08.604Z,9.40
2018-10-09T06:34:43.972Z,9.50
2018-10-09T06:37:19.925Z,9.50
2018-10-09T06:39:55.245Z,9.60
2018-10-09T06:42:30.895Z,9.70
2018-10-09T06:45:06.350Z,9.80
2018-10-09T06:47:42.312Z,9.90
2018-10-09T06:50:17.467Z,10.00
2018-10-09T06:52:53.497Z,10.30
2018-10-09T06:55:28.932Z,10.50
2018-10-09T06:58:04.601Z,10.80
2018-10-09T07:00:39.317Z,11.00
2018-10-09T07:03:14.225Z,11.50
2018-10-09T07:05:48.823Z,11.80
2018-10-09T07:08:23.652Z,12.40
2018-10-09T07:10:59.446Z,12.80
2018-10-09T07:13:34.528Z,13.10
2018-10-09T07:16:09.461Z,13.70
2018-10-09T07:18:44.245Z,13.80
2018-10-09T07:21:18.948Z,13.60
2018-10-09T07:23:53.958Z,13.40
2018-10-09T07:26:28.749Z,13.10
2018-10-09T07:29:03.531Z,12.80
2018-10-09T07:31:38.473Z,12.60
2018-10-09T07:34:13.289Z,12.40
2018-10-09T07:36:48.301Z,12.30
2018-10-09T07:39:23.411Z,12.20
2018-10-09T07:41:58.385Z,12.40
2018-10-09T07:44:33.153Z,12.50
2018-10-09T07:47:08.048Z,12.80
2018-10-09T07:49:42.779Z,13.10
2018-10-09T07:52:17.952Z,13.30
2018-10-09T07:54:52.593Z,13.40
2018-10-09T07:57:28.099Z,13.50
2018-10-09T08:00:02.865Z,13.60
2018-10-09T08:02:37.585Z,13.70
2018-10-09T08:05:12.206Z,13.90
2018-10-09T08:07:47.055Z,14.00
2018-10-09T08:10:21.965Z,14.00
2018-10-09T08:12:56.788Z,14.00
2018-10-09T08:15:31.514Z,14.00
2018-10-09T08:18:07.069Z,13.90
2018-10-09T08:20:41.988Z,13.90
2018-10-09T08:23:18.021Z,13.90
2018-10-09T08:25:52.843Z,14.00
2018-10-09T08:28:27.678Z,14.00
2018-10-09T08:31:02.224Z,14.00
2018-10-09T08:33:37.246Z,14.00
2018-10-09T08:36:11.928Z,14.00
2018-10-09T08:38:46.860Z,13.90
2018-10-09T08:41:21.508Z,14.00
2018-10-09T08:43:56.230Z,14.00
2018-10-09T08:46:30.790Z,14.10
2018-10-09T08:49:05.654Z,14.10
2018-10-09T08:51:40.456Z,14.20
2018-10-09T08:54:15.326Z,14.20
2018-10-09T08:56:50.398Z,14.30
2018-10-09T08:59:25.264Z,14.40
2018-10-09T09:01:59.932Z,14.40
2018-10-09T09:04:34.860Z,14.40
2018-10-09T09:07:09.512Z,14.60
2018-10-09T09:09:44.376Z,14.80
2018-10-09T09:12:18.977Z,14.90
2018-10-09T09:14:53.826Z,15.10
2018-10-09T09:17:29.062Z,15.10
2018-10-09T09:20:03.773Z,15.10
2018-10-09T09:22:38.596Z,15.10
2018-10-09T09:25:13.458Z,15.10
2018-10-09T09:27:48.140Z,15.20
2018-10-09T09:30:22.814Z,15.40
2018-10-09T09:32:57.492Z,15.60
2018-10-09T09:35:32.464Z,15.70
2018-10-09T09:38:07.116Z,15.60
2018-10-09T09:40:42.004Z,15.70
2018-10-09T09:43:16.800Z,15.80
2018-10-09T09:45:51.721Z,15.90
2018-10-09T09:48:26.263Z,15.70
2018-10-09T09:51:01.125Z,15.70
2018-10-09T09:53:35.699Z,15.80
2018-10-09T09:56:10.469Z,15.80
2018-10-09T09:58:45.260Z,15.90
2018-10-09T10:01:24.181Z,15.80
2018-10-09T10:03:58.836Z,15.70
2018-10-09T10:06:33.848Z,15.70
2018-10-09T10:09:13.344Z,15.60
2018-10-09T10:11:48.702Z,15.70
2018-10-09T10:14:24.342Z,16.00
2018-10-09T10:16:59.177Z,16.30
2018-10-09T10:19:34.148Z,16.60
2018-10-09T10:22:09.125Z,16.70
2018-10-09T10:24:43.847Z,16.80
2018-10-09T10:27:18.731Z,16.80
2018-10-09T10:29:53.573Z,16.80
2018-10-09T10:32:29.317Z,16.70
2018-10-09T10:35:04.073Z,16.80
2018-10-09T10:37:41.581Z,16.60
2018-10-09T10:40:17.475Z,16.50
2018-10-09T10:42:52.395Z,16.50
2018-10-09T10:45:30.353Z,16.60
2018-10-09T10:48:05.736Z,16.70
2018-10-09T10:50:40.629Z,16.80
2018-10-09T10:53:16.146Z,16.90
2018-10-09T10:55:51.513Z,16.70
2018-10-09T10:58:26.680Z,16.80
2018-10-09T11:01:01.475Z,17.00
2018-10-09T11:03:36.494Z,17.10
2018-10-09T11:06:11.187Z,17.20
2018-10-09T11:08:46.358Z,17.10
2018-10-09T11:11:21.190Z,17.10
2018-10-09T11:13:55.899Z,17.30
2018-10-09T11:16:30.926Z,17.50
2018-10-09T11:19:06.070Z,17.50
2018-10-09T11:21:41.156Z,17.60
2018-10-09T11:24:15.961Z,17.50
2018-10-09T11:26:50.760Z,17.60
2018-10-09T11:29:25.601Z,17.80
2018-10-09T11:32:00.396Z,18.00
2018-10-09T11:34:37.046Z,18.30
2018-10-09T11:37:11.714Z,18.30
2018-10-09T11:39:46.988Z,18.30
2018-10-09T11:42:21.761Z,18.30
2018-10-09T11:44:56.611Z,18.20
2018-10-09T11:47:31.373Z,18.20
2018-10-09T11:50:06.516Z,18.30
2018-10-09T11:52:41.217Z,18.30
2018-10-09T11:55:15.915Z,18.40
2018-10-09T11:57:50.793Z,18.40
2018-10-09T12:00:25.376Z,18.30
2018-10-09T12:03:00.313Z,18.40
2018-10-09T12:05:34.986Z,18.50
2018-10-09T12:08:09.839Z,18.40
2018-10-09T12:10:44.551Z,18.30
2018-10-09T12:13:19.436Z,18.30
2018-10-09T12:15:54.248Z,18.30
2018-10-09T12:18:29.078Z,18.40
2018-10-09T12:21:03.904Z,18.50
2018-10-09T12:23:38.735Z,18.60
2018-10-09T12:26:13.484Z,18.50
2018-10-09T12:28:48.668Z,18.50
2018-10-09T12:31:23.237Z,18.60
2018-10-09T12:33:58.144Z,18.70
2018-10-09T12:36:32.676Z,18.70
2018-10-09T12:39:10.255Z,18.70
2018-10-09T12:41:45.024Z,18.80
2018-10-09T12:44:19.875Z,18.80
2018-10-09T12:46:54.584Z,18.70
2018-10-09T12:49:29.411Z,18.70
2018-10-09T12:52:04.178Z,18.90
2018-10-09T12:54:39.053Z,18.80
2018-10-09T12:57:13.845Z,18.90
2018-10-09T12:59:48.588Z,18.80
2018-10-09T13:02:23.302Z,18.80
2018-10-09T13:04:58.098Z,18.80
2018-10-09T13:07:32.723Z,18.90
2018-10-09T13:10:07.817Z,18.90
2018-10-09T13:12:42.425Z,19.00
2018-10-09T13:15:17.459Z,18.90
2018-10-09T13:17:52.195Z,18.90
2018-10-09T13:20:27.029Z,19.00
2018-10-09T13:23:02.005Z,19.10
2018-10-09T13:25:37.008Z,19.00
2018-10-09T13:28:11.820Z,19.10
2018-10-09T13:30:46.673Z,19.20
2018-10-09T13:33:21.288Z,19.10
2018-10-09T13:35:56.209Z,19.00
2018-10-09T13:38:30.872Z,19.00
2018-10-09T13:41:05.805Z,19.00
2018-10-09T13:43:40.413Z,19.00
2018-10-09T13:46:15.481Z,18.80
2018-10-09T13:48:50.247Z,18.80
2018-10-09T13:51:25.100Z,18.80
2018-10-09T13:53:59.666Z,18.70
2018-10-09T13:56:34.508Z,18.70
2018-10-09T13:59:09.577Z,18.70
2018-10-09T14:01:44.336Z,18.70
2018-10-09T14:04:19.081Z,18.70
2018-10-09T14:06:54.062Z,18.70
2018-10-09T14:09:28.832Z,18.60
2018-10-09T14:12:03.952Z,18.40
2018-10-09T14:14:38.521Z,18.40
2018-10-09T14:17:13.700Z,18.40
2018-10-09T14:19:48.271Z,18.40
2018-10-09T14:22:23.245Z,18.40
2018-10-09T14:24:57.789Z,18.30
2018-10-09T14:27:32.620Z,18.30
2018-10-09T14:30:07.463Z,18.30
2018-10-09T14:32:42.305Z,18.30
2018-10-09T14:35:17.060Z,18.30
2018-10-09T14:37:51.859Z,18.30
2018-10-09T14:40:26.881Z,18.40
2018-10-09T14:43:02.014Z,18.40
2018-10-09T14:45:36.831Z,18.40
2018-10-09T14:48:11.721Z,18.40
2018-10-09T14:50:46.596Z,18.40
2018-10-09T14:53:21.457Z,18.50
2018-10-09T14:55:56.024Z,18.60
2018-10-09T14:58:30.896Z,18.60
2018-10-09T15:01:05.658Z,18.60
2018-10-09T15:03:40.382Z,18.50
2018-10-09T15:06:15.276Z,18.50
2018-10-09T15:08:50.194Z,18.40
2018-10-09T15:11:25.131Z,18.40
2018-10-09T15:13:59.951Z,18.40
2018-10-09T15:16:34.602Z,18.30
2018-10-09T15:19:09.670Z,18.20
2018-10-09T15:21:44.499Z,18.10
2018-10-09T15:24:19.367Z,18.10
2018-10-09T15:26:54.060Z,18.10
2018-10-09T15:29:29.260Z,18.00
2018-10-09T15:32:04.158Z,18.00
2018-10-09T15:34:39.635Z,17.80
2018-10-09T15:37:14.380Z,17.80
2018-10-09T15:39:49.596Z,17.70
2018-10-09T15:42:24.344Z,17.60
2018-10-09T15:44:59.396Z,17.40
2018-10-09T15:47:34.116Z,17.30
2018-10-09T15:50:09.253Z,17.20
2018-10-09T15:52:43.919Z,17.10
2018-10-09T15:55:18.797Z,16.90
2018-10-09T15:57:53.413Z,16.80
2018-10-09T16:00:29.298Z,16.70
2018-10-09T16:03:04.117Z,16.70
2018-10-09T16:05:39.028Z,16.50
2018-10-09T16:08:13.727Z,16.40
2018-10-09T16:10:48.543Z,16.30
2018-10-09T16:13:23.306Z,16.20
2018-10-09T16:15:58.020Z,16.00
2018-10-09T16:18:32.884Z,15.90
2018-10-09T16:21:07.836Z,15.80
2018-10-09T16:23:42.781Z,15.70
2018-10-09T16:26:20.770Z,15.60
2018-10-09T16:28:55.655Z,15.50
2018-10-09T16:31:33.584Z,15.40
2018-10-09T16:34:08.243Z,15.40
2018-10-09T16:36:43.162Z,15.30
2018-10-09T16:39:17.899Z,15.20
2018-10-09T16:41:53.548Z,15.10
2018-10-09T16:44:28.196Z,15.00
2018-10-09T16:47:06.282Z,14.90
2018-10-09T16:49:40.868Z,14.80
2018-10-09T16:52:15.724Z,14.70
2018-10-09T16:54:51.038Z,14.60
2018-10-09T16:57:26.525Z,14.60
2018-10-09T17:00:01.985Z,14.60
2018-10-09T17:02:37.662Z,14.60
2018-10-09T17:05:13.016Z,14.60
2018-10-09T17:07:48.491Z,14.60
2018-10-09T17:10:23.763Z,14.50
2018-10-09T17:12:59.551Z,14.60
2018-10-09T17:15:35.102Z,14.50
2018-10-09T17:18:10.684Z,14.40
2018-10-09T17:20:46.251Z,14.30
2018-10-09T17:23:22.033Z,14.20
2018-10-09T17:25:57.369Z,14.10
2018-10-09T17:28:33.040Z,14.00
2018-10-09T17:31:08.365Z,14.00
2018-10-09T17:33:43.805Z,13.90
2018-10-09T17:36:19.293Z,13.90
2018-10-09T17:38:54.729Z,13.80
2018-10-09T17:41:30.221Z,13.70
2018-10-09T17:44:05.825Z,13.70
2018-10-09T17:46:41.316Z,13.70
2018-10-09T17:49:16.852Z,13.60
2018-10-09T17:51:52.833Z,13.60
2018-10-09T17:54:28.659Z,13.50
2018-10-09T17:57:04.061Z,13.50
2018-10-09T17:59:39.576Z,13.40
2018-10-09T18:02:15.101Z,13.30
2018-10-09T18:04:50.664Z,13.30
2018-10-09T18:07:26.067Z,13.30
2018-10-09T18:10:01.630Z,13.20
2018-10-09T18:12:37.062Z,13.20
2018-10-09T18:15:14.426Z,13.20
2018-10-09T18:17:49.777Z,13.10
2018-10-09T18:20:25.455Z,13.00
2018-10-09T18:23:00.991Z,13.00
2018-10-09T18:25:36.569Z,13.00
2018-10-09T18:28:11.909Z,12.90
2018-10-09T18:30:47.332Z,12.90
2018-10-09T18:33:23.036Z,12.90
2018-10-09T18:35:58.454Z,12.80
2018-10-09T18:38:33.856Z,12.80
2018-10-09T18:41:09.483Z,12.90
2018-10-09T18:43:44.892Z,12.90
2018-10-09T18:46:20.490Z,12.80
2018-10-09T18:48:55.802Z,12.90
2018-10-09T18:51:31.489Z,12.90
2018-10-09T18:54:07.252Z,12.90
2018-10-09T18:56:43.056Z,12.90
2018-10-09T18:59:18.628Z,12.90
2018-10-09T19:01:54.205Z,13.00
2018-10-09T19:04:29.759Z,13.10
2018-10-09T19:07:05.231Z,13.00
2018-10-09T19:09:40.785Z,12.80
2018-10-09T19:12:16.168Z,12.70
2018-10-09T19:14:51.816Z,12.60
2018-10-09T19:17:27.337Z,12.60
2018-10-09T19:20:02.912Z,12.60
2018-10-09T19:22:38.701Z,12.50
2018-10-09T19:25:14.241Z,12.40
2018-10-09T19:27:49.469Z,12.40
2018-10-09T19:30:25.110Z,12.30
2018-10-09T19:33:00.446Z,12.20
2018-10-09T19:35:36.292Z,12.20
2018-10-09T19:38:11.736Z,12.30
2018-10-09T19:40:47.145Z,12.20
2018-10-09T19:43:22.601Z,12.20
2018-10-09T19:45:58.139Z,12.20
2018-10-09T19:48:33.667Z,12.20
2018-10-09T19:51:09.381Z,12.20
2018-10-09T19:53:44.521Z,12.30
2018-10-09T19:56:20.037Z,12.20
2018-10-09T19:58:55.987Z,12.20
2018-10-09T20:01:31.743Z,12.10
2018-10-09T20:04:07.161Z,12.10
2018-10-09T20:06:42.761Z,12.10
2018-10-09T20:09:18.318Z,12.10
2018-10-09T20:11:54.228Z,12.10
2018-10-09T20:14:29.768Z,12.10
2018-10-09T20:17:05.262Z,12.20
2018-10-09T20:19:40.509Z,12.20
2018-10-09T20:22:16.057Z,12.20
2018-10-09T20:24:51.568Z,12.20
2018-10-09T20:27:27.157Z,12.20
2018-10-09T20:30:02.622Z,12.20
2018-10-09T20:32:38.102Z,12.10
2018-10-09T20:35:13.511Z,12.10
2018-10-09T20:37:49.185Z,12.10
2018-10-09T20:40:24.726Z,12.20
2018-10-09T20:43:00.787Z,12.30
2018-10-09T20:45:36.330Z,12.20
2018-10-09T20:48:11.914Z,12.10
2018-10-09T20:50:47.409Z,12.10
2018-10-09T20:53:22.862Z,12.00
2018-10-09T20:55:58.415Z,11.90
2018-10-09T20:58:33.899Z,11.80
2018-10-09T21:01:09.309Z,11.80
2018-10-09T21:03:44.845Z,11.80
2018-10-09T21:06:20.367Z,11.80
2018-10-09T21:08:55.840Z,11.80
2018-10-09T21:11:31.223Z,11.80
2018-10-09T21:14:06.892Z,11.90
2018-10-09T21:16:42.303Z,11.90
2018-10-09T21:19:17.781Z,12.00
2018-10-09T21:21:53.121Z,12.00
2018-10-09T21:24:28.848Z,12.00
2018-10-09T21:27:04.329Z,12.10
2018-10-09T21:29:39.981Z,12.10
2018-10-09T21:32:15.521Z,12.20
2018-10-09T21:34:51.332Z,12.20
2018-10-09T21:37:26.845Z,12.30
2018-10-09T21:40:02.427Z,12.10
2018-10-09T21:42:37.801Z,12.00
2018-10-09T21:45:13.844Z,12.00
2018-10-09T21:47:54.577Z,11.80
2018-10-09T21:50:30.032Z,11.80
2018-10-09T21:53:05.336Z,11.70
2018-10-09T21:55:40.732Z,11.70
2018-10-09T21:58:15.974Z,11.60
2018-10-09T22:00:56.674Z,11.60
2018-10-09T22:03:32.023Z,11.70
2018-10-09T22:06:08.116Z,11.60
2018-10-09T22:08:43.625Z,11.50
2018-10-09T22:11:19.237Z,11.50
2018-10-09T22:13:54.628Z,11.50
2018-10-09T22:16:30.227Z,11.50
2018-10-09T22:19:06.155Z,11.40
2018-10-09T22:21:41.599Z,11.40
2018-10-09T22:24:17.289Z,11.30
2018-10-09T22:26:52.777Z,11.20
2018-10-09T22:29:28.118Z,11.20
2018-10-09T22:32:03.517Z,11.10
2018-10-09T22:34:38.787Z,11.10
2018-10-09T22:37:14.341Z,11.00
2018-10-09T22:39:49.804Z,11.00
2018-10-09T22:42:25.207Z,11.00
2018-10-09T22:45:00.661Z,11.00
2018-10-09T22:47:36.084Z,10.90
2018-10-09T22:50:11.718Z,10.80
2018-10-09T22:52:47.379Z,10.90
2018-10-09T22:55:22.913Z,10.80
2018-10-09T22:57:58.597Z,10.80
2018-10-09T23:00:34.246Z,10.70
2018-10-09T23:03:09.749Z,10.70
2018-10-09T23:05:45.299Z,10.60
2018-10-09T23:08:20.713Z,10.70
2018-10-09T23:10:56.125Z,10.70
2018-10-09T23:13:31.478Z,10.70
2018-10-09T23:16:07.384Z,10.60
2018-10-09T23:18:42.865Z,10.70
2018-10-09T23:21:18.177Z,10.60
2018-10-09T23:23:54.144Z,10.60
2018-10-09T23:26:29.693Z,10.50
2018-10-09T23:29:05.245Z,10.50
2018-10-09T23:31:40.605Z,10.50
2018-10-09T23:34:16.028Z,10.50
2018-10-09T23:36:51.373Z,10.60
2018-10-09T23:39:26.977Z,10.60
2018-10-09T23:42:02.353Z,10.50
2018-10-09T23:44:37.859Z,10.50
2018-10-09T23:47:13.381Z,10.40
2018-10-09T23:49:49.105Z,10.40
2018-10-09T23:52:24.594Z,10.40
2018-10-09T23:55:00.322Z,10.40
2018-10-09T23:57:35.607Z,10.40
